Time;durP1;ratioP1;P1;durP2;ratioP2;P2;SDS_P1;SDS_P2;PMS_P1;PMS_P2;Temp;Humidity;BMP_temperature;BMP_pressure;BME280_temperature;BME280_humidity;BME280_pressure;Samples;Min_cycle;Max_cycle;Signal;HPM_P1;HPM_P2
2022/06/20 00:00:28;;;;;;;1.60;1.50;;;;;;;32.71;28.18;98636.44;1841204;77;33257;-64
2022/06/20 00:03:25;;;;;;;1.83;1.73;;;;;;;32.72;27.93;98630.31;1780325;80;28510;-64
2022/06/20 00:06:16;;;;;;;1.77;1.67;;;;;;;32.71;27.93;98639.22;1848506;76;28416;-63
2022/06/20 00:09:04;;;;;;;1.50;1.40;;;;;;;32.69;28.01;98641.50;1836280;77;28403;-62
2022/06/20 00:11:53;;;;;;;4.12;2.00;;;;;;;32.69;28.15;98648.45;1838475;76;28269;-61
2022/06/20 00:14:41;;;;;;;2.10;1.70;;;;;;;32.69;28.31;98660.97;1845535;77;28284;-61
2022/06/20 00:17:30;;;;;;;1.70;1.60;;;;;;;32.68;28.19;98648.20;1816454;77;28222;-62
2022/06/20 00:20:19;;;;;;;1.55;1.45;;;;;;;32.68;28.27;98652.93;1776021;79;28535;-62
2022/06/20 00:23:08;;;;;;;1.70;1.60;;;;;;;32.69;28.39;98656.80;1829308;76;28302;-64
2022/06/20 00:25:56;;;;;;;1.98;1.67;;;;;;;32.68;28.30;98655.15;1841574;76;28290;-63
2022/06/20 00:28:46;;;;;;;1.60;1.50;;;;;;;32.67;28.28;98655.48;1846258;76;28480;-61
2022/06/20 00:31:36;;;;;;;2.12;1.70;;;;;;;32.64;28.44;98650.55;1832747;77;28303;-62
2022/06/20 00:34:24;;;;;;;1.47;1.37;;;;;;;32.64;28.39;98647.20;1852611;76;28332;-62
2022/06/20 00:37:18;;;;;;;2.15;1.70;;;;;;;32.63;28.32;98678.10;1850264;76;28273;-63
2022/06/20 00:40:13;;;;;;;1.60;1.50;;;;;;;32.62;28.19;98652.84;1853051;76;28386;-62
2022/06/20 00:43:02;;;;;;;1.70;1.60;;;;;;;32.59;28.22;98638.17;1842952;76;28190;-61
2022/06/20 00:45:54;;;;;;;1.70;1.60;;;;;;;32.57;28.22;98659.37;1839805;77;28364;-62
2022/06/20 00:48:51;;;;;;;1.67;1.57;;;;;;;32.55;28.32;98646.36;1846716;77;28803;-62
2022/06/20 00:51:45;;;;;;;1.57;1.47;;;;;;;32.56;28.32;98654.94;1821172;77;28419;-62
2022/06/20 00:54:43;;;;;;;1.50;1.40;;;;;;;32.56;28.34;98654.94;1865338;76;28204;-62
2022/06/20 00:57:46;;;;;;;1.65;1.55;;;;;;;32.53;28.23;98665.33;1841991;76;28248;-62
2022/06/20 01:00:38;;;;;;;1.70;1.60;;;;;;;32.52;28.33;98669.23;1825113;77;28380;-62
2022/06/20 01:03:30;;;;;;;1.80;1.70;;;;;;;32.48;28.32;98662.65;1848762;76;28268;-61
2022/06/20 01:06:24;;;;;;;1.77;1.67;;;;;;;32.50;28.22;98660.39;1861191;76;28265;-62
2022/06/20 01:09:15;;;;;;;1.65;1.50;;;;;;;32.48;28.21;98645.97;1843289;76;32144;-62
2022/06/20 01:12:04;;;;;;;1.70;1.60;;;;;;;32.48;28.32;98661.83;1854806;76;28365;-61
2022/06/20 01:14:53;;;;;;;1.72;1.30;;;;;;;32.49;28.20;98661.52;1850930;76;28321;-62
2022/06/20 01:17:42;;;;;;;2.12;1.57;;;;;;;32.50;28.16;98674.86;1840706;77;28342;-62
2022/06/20 01:20:37;;;;;;;1.60;1.40;;;;;;;32.49;28.20;98673.17;1835578;77;28457;-62
2022/06/20 01:23:43;;;;;;;1.70;1.60;;;;;;;32.48;28.06;98663.22;1845721;76;28310;-64
2022/06/20 01:26:43;;;;;;;1.77;1.60;;;;;;;32.49;28.09;98668.48;1828683;76;28424;-63
2022/06/20 01:29:31;;;;;;;1.50;1.40;;;;;;;32.41;28.20;98658.69;1857420;75;28225;-61
2022/06/20 01:32:20;;;;;;;1.67;1.57;;;;;;;32.43;28.21;98657.79;1854648;75;28279;-61
2022/06/20 01:35:11;;;;;;;1.50;1.40;;;;;;;32.44;28.11;98651.10;1859043;76;28333;-62
2022/06/20 01:38:02;;;;;;;1.45;1.35;;;;;;;32.36;28.14;98642.97;1842879;76;28286;-61
2022/06/20 01:44:02;;;;;;;2.35;1.60;;;;;;;32.45;28.24;98663.28;1846884;77;28410;-62
2022/06/20 01:46:50;;;;;;;2.08;1.55;;;;;;;32.43;28.22;98660.00;1802143;77;28421;-63
2022/06/20 01:49:41;;;;;;;2.10;1.60;;;;;;;32.44;28.12;98669.17;1824325;77;28555;-62
2022/06/20 01:52:35;;;;;;;1.57;1.47;;;;;;;32.43;28.21;98656.39;1803927;78;28369;-62
2022/06/20 01:55:27;;;;;;;1.40;1.40;;;;;;;32.42;28.17;98650.58;1834322;77;28322;-62
2022/06/20 01:58:21;;;;;;;1.60;1.50;;;;;;;32.43;28.23;98646.11;1845678;76;28240;-62
2022/06/20 02:01:09;;;;;;;2.40;1.40;;;;;;;32.43;28.29;98651.66;1839065;76;28306;-62
2022/06/20 02:03:59;;;;;;;1.70;1.60;;;;;;;32.40;28.21;98662.02;1844601;77;28267;-62
2022/06/20 02:06:49;;;;;;;1.75;1.60;;;;;;;32.44;28.21;98664.41;1827302;77;28325;-61
2022/06/20 02:09:39;;;;;;;1.50;1.40;;;;;;;32.44;28.29;98655.27;1842078;77;28350;-62
2022/06/20 02:12:31;;;;;;;1.80;1.70;;;;;;;32.43;28.21;98671.12;1829181;77;28312;-62
2022/06/20 02:15:22;;;;;;;2.60;1.80;;;;;;;32.42;28.24;98656.13;1812328;77;28297;-61
2022/06/20 02:18:11;;;;;;;1.90;1.70;;;;;;;32.40;28.21;98647.30;1852930;76;28367;-62
2022/06/20 02:21:03;;;;;;;2.40;1.50;;;;;;;32.37;28.36;98652.92;1851367;76;28293;-62
2022/06/20 02:23:57;;;;;;;2.02;1.80;;;;;;;32.36;28.41;98656.03;1843143;76;28182;-62
2022/06/20 02:26:49;;;;;;;1.80;1.70;;;;;;;32.39;28.44;98665.14;1849447;76;28312;-62
2022/06/20 02:29:37;;;;;;;1.80;1.70;;;;;;;32.38;28.46;98656.53;1834537;77;28342;-63
2022/06/20 02:32:28;;;;;;;2.17;1.65;;;;;;;32.39;28.41;98665.14;1847631;76;28258;-62
2022/06/20 02:35:20;;;;;;;1.45;1.42;;;;;;;32.39;28.40;98656.23;1843411;76;28351;-62
2022/06/20 02:38:09;;;;;;;1.75;1.65;;;;;;;32.36;28.38;98655.47;1829481;76;28462;-62
2022/06/20 02:40:59;;;;;;;1.50;1.40;;;;;;;32.37;28.41;98651.53;1832029;76;28222;-63
2022/06/20 02:43:50;;;;;;;1.57;1.45;;;;;;;32.38;28.44;98649.02;1859011;76;28331;-61
2022/06/20 02:46:40;;;;;;;2.50;1.80;;;;;;;32.37;28.44;98649.34;1860876;76;28211;-62
2022/06/20 02:49:31;;;;;;;1.70;1.60;;;;;;;32.35;28.48;98653.81;1837789;77;28421;-62
2022/06/20 02:52:22;;;;;;;1.70;1.60;;;;;;;32.35;28.31;98647.46;1840967;77;28250;-62
2022/06/20 02:55:14;;;;;;;2.27;1.55;;;;;;;32.31;28.49;98641.70;1828126;77;28284;-61
2022/06/20 02:58:05;;;;;;;2.27;1.60;;;;;;;32.34;28.53;98643.86;1814437;77;28321;-62
2022/06/20 03:00:57;;;;;;;1.80;1.60;;;;;;;32.34;28.34;98654.98;1826890;77;28245;-62
2022/06/20 03:03:48;;;;;;;2.98;1.70;;;;;;;32.33;28.44;98653.32;1855942;76;28313;-62
2022/06/20 03:06:42;;;;;;;1.80;1.70;;;;;;;32.31;28.41;98652.83;1845894;76;28330;-62
2022/06/20 03:09:36;;;;;;;2.37;1.60;;;;;;;32.30;28.37;98659.51;1853312;76;36419;-62
2022/06/20 03:12:28;;;;;;;2.05;1.85;;;;;;;32.28;28.40;98657.63;1860155;76;28269;-62
2022/06/20 03:15:17;;;;;;;1.50;1.40;;;;;;;32.25;28.43;98649.12;1830881;77;28393;-62
2022/06/20 03:18:07;;;;;;;1.60;1.50;;;;;;;32.30;28.30;98661.49;1843336;77;28337;-63
2022/06/20 03:20:56;;;;;;;2.87;1.60;;;;;;;32.28;28.29;98649.88;1853816;76;28286;-62
2022/06/20 03:23:45;;;;;;;1.70;1.60;;;;;;;32.26;28.34;98661.30;1845053;76;28251;-62
2022/06/20 03:26:35;;;;;;;1.70;1.60;;;;;;;32.23;28.37;98656.95;1845913;76;28297;-62
2022/06/20 03:29:25;;;;;;;3.17;1.50;;;;;;;32.22;28.38;98638.63;1854614;75;28263;-62
2022/06/20 03:32:13;;;;;;;1.60;1.50;;;;;;;32.24;28.26;98660.80;1850944;76;28323;-62
2022/06/20 03:35:01;;;;;;;1.52;1.45;;;;;;;32.20;28.36;98652.03;1853199;76;28388;-62
2022/06/20 03:37:51;;;;;;;2.03;1.60;;;;;;;32.20;28.38;98660.36;1834269;77;28256;-62
2022/06/20 03:40:39;;;;;;;2.05;1.70;;;;;;;32.20;28.37;98661.75;1826278;76;28281;-62
2022/06/20 03:43:29;;;;;;;1.98;1.87;;;;;;;32.21;28.27;98655.07;1847503;76;28449;-62
2022/06/20 03:46:23;;;;;;;1.72;1.47;;;;;;;32.19;28.18;98664.27;1845046;76;28760;-62
2022/06/20 03:49:21;;;;;;;1.87;1.50;;;;;;;32.18;28.26;98677.37;1838722;76;28171;-62
2022/06/20 03:52:27;;;;;;;1.60;1.50;;;;;;;32.15;28.27;98665.48;1831975;76;32105;-62
2022/06/20 03:55:18;;;;;;;1.40;1.40;;;;;;;32.15;28.25;98666.05;1847575;76;32190;-62
2022/06/20 03:58:09;;;;;;;1.60;1.50;;;;;;;32.13;28.26;98687.22;1819454;77;28492;-61
2022/06/20 04:01:01;;;;;;;1.60;1.50;;;;;;;32.13;28.21;98683.62;1843177;76;28350;-62
2022/06/20 04:03:55;;;;;;;1.43;1.40;;;;;;;32.12;28.37;98673.06;1794351;78;28426;-60
2022/06/20 04:07:02;;;;;;;1.60;1.50;;;;;;;32.10;28.38;98675.34;1784233;78;28590;-61
2022/06/20 04:13:11;;;;;;;1.60;1.50;;;;;;;32.08;28.39;98689.56;1841901;77;28283;-62
2022/06/20 04:16:05;;;;;;;2.10;1.60;;;;;;;32.02;27.99;98699.73;1825109;76;28283;-63
2022/06/20 04:19:17;;;;;;;2.40;1.57;;;;;;;31.54;27.64;98684.20;1835591;76;28324;-62
2022/06/20 04:22:11;;;;;;;1.60;1.40;;;;;;;31.36;27.44;98691.53;1845614;76;28201;-62
2022/06/20 04:25:02;;;;;;;1.70;1.60;;;;;;;31.25;27.69;98701.19;1850767;76;28244;-61
2022/06/20 04:27:57;;;;;;;1.40;1.40;;;;;;;30.98;27.46;98697.06;1833559;76;28443;-64
2022/06/20 04:30:48;;;;;;;1.32;1.32;;;;;;;30.59;28.09;98705.05;1854732;75;28315;-65
2022/06/20 04:33:56;;;;;;;1.57;1.47;;;;;;;30.14;28.20;98714.14;1847040;76;28235;-63
2022/06/20 04:37:04;;;;;;;1.40;1.30;;;;;;;29.89;28.56;98723.15;1822562;77;28383;-65
2022/06/20 04:40:13;;;;;;;1.50;1.40;;;;;;;29.73;28.81;98713.41;1845088;75;31173;-63
2022/06/20 04:43:05;;;;;;;2.12;1.50;;;;;;;29.39;29.40;98716.38;1838437;76;28288;-64
2022/06/20 04:45:59;;;;;;;1.50;1.40;;;;;;;29.54;29.34;98708.98;1836117;76;28331;-64
2022/06/20 04:48:50;;;;;;;2.00;1.60;;;;;;;29.66;29.23;98712.96;1846391;77;28249;-62
2022/06/20 04:51:40;;;;;;;1.90;1.60;;;;;;;29.78;29.05;98720.84;1829878;77;28507;-62
2022/06/20 04:54:29;;;;;;;2.10;1.40;;;;;;;29.78;29.01;98713.33;1822357;77;28533;-61
2022/06/20 04:57:18;;;;;;;1.70;1.60;;;;;;;29.84;28.98;98721.84;1794353;78;28365;-64
2022/06/20 05:00:09;;;;;;;1.50;1.40;;;;;;;29.82;29.14;98710.25;1799368;77;28399;-62
2022/06/20 05:02:59;;;;;;;2.52;1.40;;;;;;;29.52;29.49;98712.06;1783255;79;28466;-62
2022/06/20 05:05:50;;;;;;;1.98;1.57;;;;;;;29.36;29.64;98711.44;1827689;77;38682;-64
2022/06/20 05:08:44;;;;;;;2.40;1.40;;;;;;;29.30;29.76;98709.05;1851491;76;28254;-62
2022/06/20 05:11:35;;;;;;;2.02;1.60;;;;;;;29.25;29.89;98710.49;1831134;77;28357;-62
2022/06/20 05:14:46;;;;;;;1.60;1.50;;;;;;;29.13;30.29;98711.45;1814301;77;28489;-62
2022/06/20 05:17:37;;;;;;;2.30;1.60;;;;;;;29.04;30.43;98709.08;1834186;76;28331;-63
2022/06/20 05:20:28;;;;;;;2.50;1.40;;;;;;;28.96;30.56;98714.73;1844309;76;28219;-63
2022/06/20 05:23:20;;;;;;;2.10;1.50;;;;;;;28.93;31.09;98717.25;1849322;76;28346;-63
2022/06/20 05:26:10;;;;;;;1.60;1.50;;;;;;;28.85;30.88;98719.27;1818449;77;28472;-62
2022/06/20 05:29:01;;;;;;;1.85;1.60;;;;;;;28.79;30.95;98713.54;1847166;75;28315;-63
2022/06/20 05:31:52;;;;;;;2.08;1.57;;;;;;;28.76;31.41;98714.95;1846372;76;28507;-62
2022/06/20 05:34:52;;;;;;;2.35;1.65;;;;;;;28.75;31.50;98721.61;1836539;76;28274;-61
2022/06/20 05:37:50;;;;;;;1.70;1.60;;;;;;;28.87;31.21;98726.73;1841751;77;28384;-61
2022/06/20 05:40:47;;;;;;;1.80;1.70;;;;;;;28.79;31.33;98717.69;1845239;76;28273;-61
2022/06/20 05:43:36;;;;;;;2.62;1.57;;;;;;;28.61;31.60;98726.19;1851255;76;28308;-62
2022/06/20 05:46:39;;;;;;;1.57;1.47;;;;;;;28.57;31.78;98734.20;1819982;77;29272;-61
2022/06/20 05:49:33;;;;;;;1.67;1.57;;;;;;;28.56;31.81;98742.78;1771332;80;29140;-61
2022/06/20 05:52:25;;;;;;;1.80;1.70;;;;;;;28.52;31.93;98744.50;1842960;76;28378;-61
2022/06/20 05:55:22;;;;;;;1.60;1.50;;;;;;;28.57;31.81;98736.95;1841978;77;28412;-61
2022/06/20 05:58:13;;;;;;;1.98;1.50;;;;;;;28.50;31.97;98758.58;1842570;76;28399;-61
2022/06/20 06:04:40;;;;;;;2.10;1.62;;;;;;;28.23;32.54;98758.29;1833315;76;28347;-51
2022/06/20 06:07:34;;;;;;;1.70;1.60;;;;;;;28.13;32.80;98766.66;1847784;76;28327;-47
2022/06/20 06:10:54;;;;;;;2.00;1.90;;;;;;;27.98;32.93;98755.71;1838627;76;28402;-49
2022/06/20 06:14:02;;;;;;;1.52;1.42;;;;;;;27.89;33.12;98767.90;1820855;77;28467;-49
2022/06/20 06:17:03;;;;;;;2.87;1.60;;;;;;;27.81;33.23;98768.53;1839581;75;28276;-47
2022/06/20 06:20:00;;;;;;;1.70;1.60;;;;;;;27.69;33.50;98768.59;1854596;76;28264;-52
2022/06/20 06:22:54;;;;;;;2.02;1.60;;;;;;;27.71;33.43;98771.89;1840969;76;28223;-53
2022/06/20 06:25:45;;;;;;;2.35;1.80;;;;;;;27.76;33.12;98767.72;1823503;76;28268;-52
2022/06/20 06:28:34;;;;;;;1.85;1.60;;;;;;;27.73;33.40;98776.56;1830629;76;28343;-53
2022/06/20 06:31:28;;;;;;;1.65;1.55;;;;;;;27.69;33.11;98774.95;1837839;76;28259;-54
2022/06/20 06:34:23;;;;;;;1.57;1.45;;;;;;;27.84;32.86;98780.35;1771385;78;28574;-48
2022/06/20 06:37:20;;;;;;;2.70;1.60;;;;;;;28.13;32.69;98781.84;1803379;77;28275;-51
2022/06/20 06:40:13;;;;;;;2.72;1.67;;;;;;;28.33;32.30;98780.86;1811345;77;28382;-49
2022/06/20 06:43:05;;;;;;;2.30;1.60;;;;;;;28.47;32.17;98788.75;1827657;76;28431;-51
2022/06/20 06:45:56;;;;;;;1.72;1.65;;;;;;;28.62;32.21;98787.23;1839959;76;28290;-51
2022/06/20 06:48:48;;;;;;;1.47;1.40;;;;;;;28.69;31.85;98776.11;1845640;76;28404;-48
2022/06/20 06:51:43;;;;;;;2.20;1.60;;;;;;;28.81;31.97;98784.56;1845037;76;28299;-46
2022/06/20 06:54:46;;;;;;;1.70;1.60;;;;;;;28.92;31.61;98786.09;1823004;77;28243;-49
2022/06/20 06:57:42;;;;;;;2.75;1.67;;;;;;;29.02;31.32;98781.84;1835347;77;28356;-50
2022/06/20 07:00:40;;;;;;;3.67;1.70;;;;;;;29.09;31.37;98790.05;1842709;76;28377;-49
2022/06/20 07:03:35;;;;;;;2.35;1.50;;;;;;;29.10;31.10;98781.20;1780535;79;28313;-46
2022/06/20 07:06:26;;;;;;;1.87;1.67;;;;;;;29.09;31.00;98786.45;1772686;79;28432;-48
2022/06/20 07:09:17;;;;;;;1.65;1.45;;;;;;;29.18;31.13;98788.31;1767398;78;29484;-46
2022/06/20 07:12:11;;;;;;;1.70;1.60;;;;;;;29.32;31.13;98789.80;1780231;78;28423;-46
2022/06/20 07:15:15;;;;;;;1.72;1.60;;;;;;;29.49;31.04;98799.83;1795855;78;28413;-48
2022/06/20 07:18:10;;;;;;;1.60;1.50;;;;;;;29.62;31.02;98789.95;1836923;76;28352;-46
2022/06/20 07:20:58;;;;;;;1.57;1.40;;;;;;;29.56;31.06;98776.76;1800092;78;28534;-49
2022/06/20 07:23:52;;;;;;;1.72;1.62;;;;;;;29.68;31.04;98785.45;1810275;76;28342;-46
2022/06/20 07:26:46;;;;;;;1.87;1.70;;;;;;;29.78;31.00;98777.02;1761347;79;28258;-50
2022/06/20 07:29:57;;;;;;;1.50;1.40;;;;;;;29.84;30.93;98783.31;1788657;79;28449;-49
2022/06/20 07:32:48;;;;;;;2.77;1.65;;;;;;;29.92;30.86;98780.68;1781647;78;28558;-50
2022/06/20 07:35:40;;;;;;;1.90;1.80;;;;;;;29.94;30.88;98783.97;1822361;76;28299;-49
2022/06/20 07:38:50;;;;;;;1.82;1.62;;;;;;;30.04;30.85;98777.45;1813654;76;28438;-46
2022/06/20 07:41:50;;;;;;;3.03;1.60;;;;;;;30.03;30.83;98772.50;1790895;77;28397;-48
2022/06/20 07:44:42;;;;;;;1.80;1.70;;;;;;;30.09;30.75;98778.76;1790681;77;34676;-50
2022/06/20 07:47:39;;;;;;;2.40;1.70;;;;;;;30.16;30.75;98767.29;1854010;76;28264;-47
2022/06/20 07:50:37;;;;;;;1.70;1.60;;;;;;;30.18;30.89;98768.64;1815404;77;28322;-47
2022/06/20 07:53:44;;;;;;;1.65;1.55;;;;;;;30.25;30.97;98769.62;1805456;76;28277;-48
2022/06/20 07:56:50;;;;;;;2.58;1.65;;;;;;;30.30;31.18;98767.61;1809674;77;28468;-47
2022/06/20 07:59:56;;;;;;;3.72;1.80;;;;;;;30.22;30.81;98757.78;1730363;80;28399;-47
2022/06/20 08:02:50;;;;;;;2.75;1.80;;;;;;;30.23;31.08;98760.80;1761640;79;28468;-48
2022/06/20 08:05:44;;;;;;;2.98;1.80;;;;;;;30.30;31.51;98767.61;1842937;76;28360;-52
2022/06/20 08:08:45;;;;;;;1.80;1.67;;;;;;;30.40;31.91;98762.48;1816924;78;28312;-45
2022/06/20 08:11:45;;;;;;;3.92;1.85;;;;;;;30.46;31.81;98766.80;1820115;76;28274;-47
2022/06/20 08:14:58;;;;;;;1.92;1.82;;;;;;;30.48;31.81;98774.28;1847786;76;28296;-49
2022/06/20 08:17:47;;;;;;;1.87;1.77;;;;;;;30.35;31.07;98765.34;1825698;76;28296;-49
2022/06/20 08:20:40;;;;;;;2.05;1.75;;;;;;;30.44;31.46;98767.67;1839244;76;28351;-51
2022/06/20 08:23:37;;;;;;;2.07;1.73;;;;;;;30.49;31.61;98754.56;1845921;76;28299;-51
2022/06/20 08:26:41;;;;;;;1.80;1.70;;;;;;;30.52;31.79;98768.38;1839904;76;28293;-51
2022/06/20 08:29:38;;;;;;;2.40;1.72;;;;;;;30.57;31.74;98769.67;1843153;75;28450;-47
2022/06/20 08:32:36;;;;;;;1.85;1.72;;;;;;;30.62;31.77;98757.11;1838538;75;28891;-48
2022/06/20 08:35:36;;;;;;;2.95;1.70;;;;;;;30.65;31.83;98757.87;1821842;76;28779;-50
2022/06/20 08:38:31;;;;;;;2.30;1.50;;;;;;;30.69;31.82;98757.53;1797725;76;28838;-50
2022/06/20 08:41:48;;;;;;;1.82;1.70;;;;;;;30.74;31.92;98758.24;1833032;76;28303;-46
2022/06/20 08:44:46;;;;;;;2.15;1.70;;;;;;;30.78;31.90;98761.24;1849666;76;28328;-46
2022/06/20 08:48:08;;;;;;;1.90;1.60;;;;;;;30.75;32.17;98752.97;1837948;76;28262;-48
2022/06/20 08:51:05;;;;;;;1.80;1.60;;;;;;;30.75;32.24;98771.55;1845556;76;28349;-46
2022/06/20 08:54:24;;;;;;;2.65;1.50;;;;;;;30.75;32.36;98747.42;1847349;76;28635;-49
2022/06/20 08:57:24;;;;;;;1.60;1.50;;;;;;;30.78;32.39;98753.48;1788880;76;28423;-47
2022/06/20 09:00:23;;;;;;;2.90;1.85;;;;;;;30.76;32.41;98752.38;1856290;76;28395;-49
2022/06/20 09:03:46;;;;;;;1.98;1.62;;;;;;;30.80;32.39;98759.54;1826169;76;28262;-49
2022/06/20 09:07:12;;;;;;;2.58;2.02;;;;;;;30.82;32.97;98755.33;1800980;76;28255;-51
2022/06/20 09:10:20;;;;;;;2.77;1.70;;;;;;;30.80;33.32;98749.28;1832535;75;28348;-49
2022/06/20 09:13:11;;;;;;;2.08;1.72;;;;;;;30.77;33.35;98755.42;1840660;76;28264;-52
2022/06/20 09:16:03;;;;;;;3.10;1.90;;;;;;;30.80;33.70;98740.95;1840356;76;28860;-49
2022/06/20 09:19:09;;;;;;;1.57;1.52;;;;;;;30.84;33.54;98739.20;1777150;78;28307;-49
2022/06/20 09:22:04;;;;;;;2.80;1.60;;;;;;;30.88;33.80;98738.88;1838139;76;28398;-51
2022/06/20 09:25:04;;;;;;;2.10;2.00;;;;;;;30.89;33.89;98741.91;1832231;77;28373;-45
2022/06/20 09:28:13;;;;;;;2.00;1.80;;;;;;;30.90;33.78;98737.20;1832272;76;28672;-49
2022/06/20 09:31:20;;;;;;;4.33;1.90;;;;;;;30.91;33.68;98745.20;1851559;76;28315;-50
2022/06/20 09:34:20;;;;;;;3.40;1.60;;;;;;;30.89;33.68;98738.31;1819881;76;28365;-48
2022/06/20 09:37:21;;;;;;;1.70;1.60;;;;;;;30.91;33.48;98736.88;1831722;76;28448;-46
2022/06/20 09:40:37;;;;;;;2.22;1.60;;;;;;;30.93;33.53;98741.55;1844741;76;28425;-50
2022/06/20 09:43:51;;;;;;;3.12;1.67;;;;;;;30.94;33.52;98744.59;1832260;76;28294;-48
2022/06/20 09:47:01;;;;;;;1.52;1.42;;;;;;;30.94;33.60;98741.81;1842306;76;38734;-46
2022/06/20 09:49:55;;;;;;;1.72;1.60;;;;;;;30.97;33.54;98734.25;1811775;77;28328;-45
2022/06/20 09:53:03;;;;;;;1.60;1.50;;;;;;;30.96;33.54;98725.69;1810638;78;28320;-48
2022/06/20 09:55:57;;;;;;;1.85;1.70;;;;;;;30.99;33.52;98740.34;1814407;77;28269;-49
2022/06/20 09:59:10;;;;;;;1.77;1.62;;;;;;;30.96;33.70;98728.45;1819236;76;28226;-48
2022/06/20 10:02:07;;;;;;;1.87;1.42;;;;;;;31.01;34.24;98738.63;1824222;75;28292;-48
2022/06/20 10:05:10;;;;;;;1.80;1.70;;;;;;;31.05;34.23;98732.16;1824933;76;28320;-50
2022/06/20 10:08:05;;;;;;;1.60;1.45;;;;;;;31.08;34.42;98732.94;1825715;77;28281;-50
2022/06/20 10:11:11;;;;;;;2.60;1.57;;;;;;;31.10;34.44;98729.28;1857879;76;28313;-51
2022/06/20 10:14:20;;;;;;;1.77;1.60;;;;;;;31.06;34.36;98720.50;1808551;78;28319;-46
2022/06/20 10:17:33;;;;;;;2.55;1.57;;;;;;;31.12;34.39;98721.46;1799344;77;28399;-46
2022/06/20 10:20:36;;;;;;;1.70;1.60;;;;;;;31.13;34.39;98719.52;1807702;77;28792;-47
2022/06/20 10:23:46;;;;;;;2.05;1.60;;;;;;;31.14;34.44;98712.82;1769554;78;28951;-49
2022/06/20 10:26:57;;;;;;;2.62;1.60;;;;;;;31.14;34.48;98713.64;1809861;77;28329;-46
2022/06/20 10:30:03;;;;;;;1.52;1.42;;;;;;;31.16;34.50;98701.67;1820164;76;28284;-52
2022/06/20 10:33:13;;;;;;;1.70;1.60;;;;;;;31.16;34.44;98704.44;1827748;76;28330;-46
2022/06/20 10:36:21;;;;;;;1.60;1.45;;;;;;;31.16;34.49;98694.73;1847281;76;31136;-48
2022/06/20 10:39:29;;;;;;;3.10;1.53;;;;;;;31.19;34.47;98690.52;1829608;76;28352;-46
2022/06/20 10:42:32;;;;;;;1.95;1.67;;;;;;;31.18;34.50;98698.02;1840835;76;28346;-48
2022/06/20 10:45:40;;;;;;;1.50;1.40;;;;;;;31.21;34.52;98688.25;1850407;77;28244;-49
2022/06/20 10:48:51;;;;;;;1.42;1.32;;;;;;;31.20;34.56;98686.62;1833315;76;28234;-50
2022/06/20 10:51:42;;;;;;;1.87;1.60;;;;;;;31.20;34.63;98679.09;1820323;77;28415;-50
2022/06/20 10:54:33;;;;;;;2.10;1.37;;;;;;;31.22;34.68;98671.30;1843414;77;28351;-50
2022/06/20 10:57:42;;;;;;;1.90;1.40;;;;;;;31.22;34.70;98674.08;1835174;76;28168;-50
2022/06/20 11:00:33;;;;;;;2.72;1.40;;;;;;;31.26;34.79;98669.55;1847647;76;28189;-48
2022/06/20 11:03:46;;;;;;;2.27;1.40;;;;;;;31.24;34.78;98666.27;1809823;76;28451;-50
2022/06/20 11:06:59;;;;;;;1.70;1.60;;;;;;;31.26;34.80;98668.16;1813060;76;28306;-47
2022/06/20 11:10:12;;;;;;;2.08;1.50;;;;;;;31.23;34.91;98668.77;1850958;76;28335;-48
2022/06/20 11:13:06;;;;;;;1.72;1.60;;;;;;;31.23;34.86;98665.16;1837655;76;28277;-46
2022/06/20 11:16:20;;;;;;;2.37;1.47;;;;;;;31.23;34.82;98660.45;1857128;76;28278;-48
2022/06/20 11:19:11;;;;;;;1.80;1.40;;;;;;;31.26;34.69;98659.83;1819683;77;28312;-48
2022/06/20 11:22:15;;;;;;;4.37;1.47;;;;;;;31.24;34.69;98656.55;1799512;77;28301;-52
2022/06/20 11:25:12;;;;;;;1.60;1.40;;;;;;;31.29;34.59;98655.61;1753280;79;28418;-50
2022/06/20 11:28:03;;;;;;;2.10;1.60;;;;;;;31.28;34.58;98650.62;1857801;76;31157;-50
2022/06/20 11:31:13;;;;;;;1.52;1.42;;;;;;;31.32;34.47;98648.85;1833272;77;28410;-50
2022/06/20 11:34:17;;;;;;;2.12;1.40;;;;;;;31.31;34.38;98640.29;1830173;77;28364;-49
2022/06/20 11:37:08;;;;;;;1.40;1.30;;;;;;;31.29;34.33;98635.63;1814149;76;28208;-49
2022/06/20 11:40:14;;;;;;;1.62;1.50;;;;;;;31.32;34.39;98647.47;1796752;78;28350;-50
2022/06/20 11:43:23;;;;;;;1.20;1.20;;;;;;;31.34;34.43;98643.02;1805699;77;31205;-48
2022/06/20 11:46:29;;;;;;;1.40;1.30;;;;;;;31.33;34.38;98640.80;1808498;77;28232;-50
2022/06/20 11:49:38;;;;;;;1.30;1.30;;;;;;;31.33;34.28;98632.47;1853417;76;28228;-46
2022/06/20 11:52:44;;;;;;;1.52;1.45;;;;;;;31.33;34.29;98625.53;1822998;76;28282;-51
2022/06/20 11:55:48;;;;;;;1.47;1.37;;;;;;;31.33;34.28;98631.08;1830066;76;28206;-50
2022/06/20 11:58:59;;;;;;;1.30;1.20;;;;;;;31.31;34.29;98622.25;1843106;76;28326;-48
2022/06/20 12:02:11;;;;;;;1.80;1.27;;;;;;;31.34;34.21;98620.80;1826946;76;28249;-52
2022/06/20 12:05:17;;;;;;;1.40;1.30;;;;;;;31.29;34.50;98613.98;1841000;76;28537;-51
2022/06/20 12:08:31;;;;;;;1.60;1.50;;;;;;;31.19;34.81;98615.03;1804637;77;28290;-51
2022/06/20 12:11:31;;;;;;;1.80;1.30;;;;;;;31.11;35.10;98615.77;1833176;76;28662;-49
2022/06/20 12:14:26;;;;;;;1.25;1.20;;;;;;;31.09;35.38;98611.09;1855462;76;29162;-54
2022/06/20 12:17:30;;;;;;;1.47;1.30;;;;;;;31.07;35.50;98600.05;1784996;77;28406;-50
2022/06/20 12:23:42;;;;;;;1.50;1.40;;;;;;;31.13;35.73;98604.38;1847036;75;28304;-48
2022/06/20 12:26:42;;;;;;;1.32;1.30;;;;;;;31.12;35.78;98596.61;1809784;76;28376;-50
2022/06/20 12:29:34;;;;;;;1.50;1.40;;;;;;;31.14;35.75;98587.96;1835634;76;28357;-48
2022/06/20 12:32:29;;;;;;;2.27;1.22;;;;;;;31.14;35.82;98593.52;1850384;76;28223;-48
2022/06/20 12:35:35;;;;;;;1.37;1.30;;;;;;;31.14;35.92;98592.13;1832686;76;28235;-53
2022/06/20 12:38:32;;;;;;;1.50;1.30;;;;;;;31.16;35.92;98587.08;1841876;76;28321;-50
2022/06/20 12:41:24;;;;;;;2.40;1.30;;;;;;;31.14;35.95;98580.47;1858664;76;28210;-50
2022/06/20 12:44:40;;;;;;;1.40;1.30;;;;;;;31.19;35.93;98577.58;1850567;76;28239;-54
2022/06/20 12:47:48;;;;;;;1.40;1.30;;;;;;;31.21;35.94;98572.53;1810859;76;28329;-53
2022/06/20 12:50:48;;;;;;;1.50;1.40;;;;;;;31.22;35.98;98571.97;1816341;76;28313;-48
2022/06/20 12:53:46;;;;;;;1.40;1.30;;;;;;;31.21;36.01;98573.09;1831358;76;32327;-53
2022/06/20 12:56:53;;;;;;;1.35;1.27;;;;;;;31.21;35.97;98571.14;1829863;76;28319;-52
2022/06/20 12:59:47;;;;;;;1.47;1.40;;;;;;;31.22;35.92;98570.02;1845607;76;28363;-49
2022/06/20 13:03:12;;;;;;;1.40;1.30;;;;;;;31.23;35.86;98554.99;1843126;76;28261;-50
2022/06/20 13:06:32;;;;;;;1.30;1.20;;;;;;;31.25;35.88;98562.44;1837391;76;28192;-47
2022/06/20 13:09:23;;;;;;;1.37;1.37;;;;;;;31.21;35.87;98557.27;1854312;76;28181;-53
2022/06/20 13:12:26;;;;;;;1.40;1.30;;;;;;;31.22;35.99;98552.55;1847925;76;28168;-50
2022/06/20 13:15:42;;;;;;;1.40;1.30;;;;;;;31.20;35.99;98548.67;1811880;77;28321;-52
2022/06/20 13:18:39;;;;;;;1.30;1.30;;;;;;;31.20;36.06;98538.97;1861755;76;28187;-51
2022/06/20 13:21:48;;;;;;;1.27;1.27;;;;;;;31.14;36.09;98544.39;1815812;77;28193;-50
2022/06/20 13:24:51;;;;;;;1.30;1.30;;;;;;;31.13;36.10;98549.70;1802554;79;28350;-48
2022/06/20 13:27:49;;;;;;;1.12;1.00;;;;;;;31.08;36.16;98539.28;1815700;76;28313;-48
2022/06/20 13:31:03;;;;;;;1.35;1.25;;;;;;;31.10;36.14;98535.63;1839382;76;28309;-52
2022/06/20 13:34:09;;;;;;;1.17;1.17;;;;;;;31.11;36.11;98531.73;1838404;76;28287;-54
2022/06/20 13:37:00;;;;;;;1.40;1.30;;;;;;;31.14;36.01;98526.36;1830528;77;28353;-49
2022/06/20 13:39:51;;;;;;;1.40;1.30;;;;;;;31.13;36.07;98517.80;1857095;76;28391;-51
2022/06/20 13:42:48;;;;;;;1.32;1.20;;;;;;;31.15;35.95;98509.16;1822743;76;28299;-51
2022/06/20 13:45:48;;;;;;;1.75;1.30;;;;;;;31.19;35.89;98515.14;1832444;76;28326;-55
2022/06/20 13:48:40;;;;;;;1.20;1.20;;;;;;;31.20;35.87;98504.28;1857157;76;28275;-53
2022/06/20 13:51:52;;;;;;;1.00;1.00;;;;;;;31.22;35.83;98509.53;1824739;76;28260;-54
2022/06/20 13:55:21;;;;;;;1.15;1.15;;;;;;;31.27;35.78;98506.64;1797405;76;28288;-60
2022/06/20 13:58:29;;;;;;;1.22;1.20;;;;;;;31.26;35.75;98498.87;1829192;76;28266;-60
2022/06/20 14:01:20;;;;;;;1.30;1.30;;;;;;;31.23;35.84;98502.27;1827080;76;28358;-60
2022/06/20 14:04:15;;;;;;;1.30;1.20;;;;;;;31.21;35.76;98487.07;1818654;76;28251;-60
2022/06/20 14:07:06;;;;;;;1.55;1.30;;;;;;;31.27;35.76;98490.78;1811580;76;38769;-59
2022/06/20 14:09:55;;;;;;;2.60;1.40;;;;;;;31.30;35.72;98483.22;1835337;77;28237;-60